Time;durP1;ratioP1;P1;durP2;ratioP2;P2;SDS_P1;SDS_P2;PMS_P1;PMS_P2;Temp;Humidity;BMP_temperature;BMP_pressure;BME280_temperature;BME280_humidity;BME280_pressure;Samples;Min_cycle;Max_cycle;Signal;HPM_P1;HPM_P2
2023/06/06 00:02:04;;;;;;;;;;;22.70;47.40;;;;;;5015043;28;19920;-85
2023/06/06 00:04:30;;;;;;;;;;;22.60;47.40;;;;;;5015737;28;19913;-85
2023/06/06 00:06:56;;;;;;;;;;;22.60;47.40;;;;;;5003325;28;19913;-85
2023/06/06 00:09:22;;;;;;;;;;;22.70;47.40;;;;;;5002774;28;20268;-85
2023/06/06 00:11:48;;;;;;;;;;;22.60;47.40;;;;;;5002759;28;19959;-85
2023/06/06 00:14:18;;;;;;;;;;;22.60;47.50;;;;;;5003054;28;19909;-85
2023/06/06 00:16:48;;;;;;;;;;;22.60;47.50;;;;;;5005688;28;19920;-85
2023/06/06 00:19:15;;;;;;;;;;;22.60;47.50;;;;;;5002677;28;19924;-85
2023/06/06 00:21:41;;;;;;;;;;;22.60;47.60;;;;;;5002551;28;19953;-85
2023/06/06 00:24:11;;;;;;;;;;;22.60;47.60;;;;;;5002709;28;19906;-85
2023/06/06 00:26:36;;;;;;;;;;;22.60;47.70;;;;;;5002234;28;20280;-85
2023/06/06 00:29:02;;;;;;;;;;;22.50;47.60;;;;;;5000505;28;19931;-85
2023/06/06 00:31:28;;;;;;;;;;;22.50;47.60;;;;;;5001596;28;19917;-85
2023/06/06 00:33:53;;;;;;;;;;;22.50;47.70;;;;;;5002375;28;19940;-85
2023/06/06 00:36:19;;;;;;;;;;;22.50;47.80;;;;;;4993597;28;20037;-85
2023/06/06 00:38:47;;;;;;;;;;;22.50;47.80;;;;;;4983831;28;20020;-85
2023/06/06 00:41:13;;;;;;;;;;;22.50;47.80;;;;;;4983241;28;19971;-85
2023/06/06 00:43:41;;;;;;;;;;;22.50;47.90;;;;;;4991498;28;19913;-85
2023/06/06 00:46:10;;;;;;;;;;;22.50;48.00;;;;;;4997724;28;19973;-85
2023/06/06 00:48:36;;;;;;;;;;;22.40;48.10;;;;;;4990072;28;19910;-85
2023/06/06 00:51:02;;;;;;;;;;;22.40;48.10;;;;;;4997734;28;20497;-85
2023/06/06 00:53:27;;;;;;;;;;;22.40;48.10;;;;;;4997361;28;20320;-85
2023/06/06 00:55:53;;;;;;;;;;;22.40;48.00;;;;;;4996000;28;19920;-85
2023/06/06 00:58:19;;;;;;;;;;;22.40;48.10;;;;;;4981976;28;19945;-85
2023/06/06 01:00:46;;;;;;;;;;;22.40;48.20;;;;;;4981095;28;19910;-85
2023/06/06 01:03:14;;;;;;;;;;;22.40;48.20;;;;;;4997665;28;19910;-85
2023/06/06 01:05:39;;;;;;;;;;;22.30;48.10;;;;;;4980501;28;20049;-85
2023/06/06 01:08:06;;;;;;;;;;;22.40;48.10;;;;;;4992571;28;20032;-85
2023/06/06 01:10:34;;;;;;;;;;;22.30;48.10;;;;;;4981834;28;19972;-85
2023/06/06 01:13:03;;;;;;;;;;;22.30;48.10;;;;;;4990651;28;19910;-85
2023/06/06 01:15:34;;;;;;;;;;;22.30;48.10;;;;;;4981305;28;19920;-85
2023/06/06 01:18:03;;;;;;;;;;;22.30;48.10;;;;;;4988510;28;20295;-85
2023/06/06 01:20:34;;;;;;;;;;;22.30;48.10;;;;;;4982406;28;19983;-85
2023/06/06 01:23:03;;;;;;;;;;;22.30;48.10;;;;;;4988023;28;19917;-85
2023/06/06 01:25:34;;;;;;;;;;;22.30;48.10;;;;;;4982935;28;19928;-85
2023/06/06 01:28:04;;;;;;;;;;;22.30;48.20;;;;;;4986811;28;19913;-85
2023/06/06 01:30:31;;;;;;;;;;;22.30;48.20;;;;;;4984440;28;20243;-85
2023/06/06 01:33:18;;;;;;;;;;;22.30;48.20;;;;;;4985060;28;19987;-85
2023/06/06 01:36:02;;;;;;;;;;;22.30;48.40;;;;;;5009719;28;20012;-85
2023/06/06 01:38:31;;;;;;;;;;;22.30;48.40;;;;;;5017767;28;20000;-85
2023/06/06 01:40:58;;;;;;;;;;;22.30;48.40;;;;;;5000580;28;19909;-85
2023/06/06 01:43:26;;;;;;;;;;;22.30;48.40;;;;;;4999773;28;20346;-85
2023/06/06 01:45:53;;;;;;;;;;;22.20;48.30;;;;;;5017283;28;20016;-85
2023/06/06 01:48:23;;;;;;;;;;;22.20;48.40;;;;;;4999162;28;20286;-85
2023/06/06 01:50:54;;;;;;;;;;;22.20;48.50;;;;;;4999605;28;20188;-85
2023/06/06 01:53:23;;;;;;;;;;;22.20;48.50;;;;;;4999366;28;20096;-85
2023/06/06 01:55:48;;;;;;;;;;;22.20;48.50;;;;;;4999495;28;19923;-85
2023/06/06 01:58:17;;;;;;;;;;;22.20;48.70;;;;;;4997956;28;20024;-85
2023/06/06 02:00:43;;;;;;;;;;;22.20;48.60;;;;;;4997159;28;19910;-85
2023/06/06 02:03:11;;;;;;;;;;;22.20;48.70;;;;;;4996875;28;19995;-85
2023/06/06 02:05:37;;;;;;;;;;;22.20;48.60;;;;;;4995847;28;19924;-85
2023/06/06 02:08:06;;;;;;;;;;;22.10;48.80;;;;;;4996038;28;19909;-85
2023/06/06 02:10:31;;;;;;;;;;;22.10;48.80;;;;;;4996404;28;19909;-85
2023/06/06 02:13:00;;;;;;;;;;;22.10;48.80;;;;;;5015314;28;19916;-85
2023/06/06 02:15:30;;;;;;;;;;;22.10;48.70;;;;;;4996813;28;20202;-85
2023/06/06 02:17:55;;;;;;;;;;;22.10;48.90;;;;;;4996717;28;19972;-85
2023/06/06 02:20:21;;;;;;;;;;;22.10;48.90;;;;;;4996896;28;19909;-85
2023/06/06 02:22:46;;;;;;;;;;;22.10;48.80;;;;;;4999432;28;19936;-85
2023/06/06 02:25:13;;;;;;;;;;;22.00;48.80;;;;;;4997817;28;19913;-85
2023/06/06 02:27:47;;;;;;;;;;;22.00;48.80;;;;;;5014661;28;19920;-85
2023/06/06 02:30:12;;;;;;;;;;;22.00;48.90;;;;;;4997179;28;20294;-85
2023/06/06 02:32:39;;;;;;;;;;;22.00;48.80;;;;;;5016302;28;19921;-85
2023/06/06 02:35:04;;;;;;;;;;;22.00;48.80;;;;;;4997607;28;19988;-85
2023/06/06 02:37:33;;;;;;;;;;;22.00;48.80;;;;;;5015890;28;19917;-85
2023/06/06 02:40:05;;;;;;;;;;;22.00;48.90;;;;;;4999679;28;19910;-85
2023/06/06 02:42:31;;;;;;;;;;;22.00;48.90;;;;;;5000396;28;19918;-85
2023/06/06 02:44:57;;;;;;;;;;;22.00;48.80;;;;;;4999232;28;20011;-85
2023/06/06 02:47:22;;;;;;;;;;;22.00;48.80;;;;;;4998431;28;20000;-85
2023/06/06 02:49:48;;;;;;;;;;;22.00;48.80;;;;;;4998385;28;19936;-85
2023/06/06 02:52:13;;;;;;;;;;;22.00;48.90;;;;;;4997502;28;20005;-85
2023/06/06 02:54:42;;;;;;;;;;;22.00;48.90;;;;;;4999223;28;20264;-85
2023/06/06 02:57:07;;;;;;;;;;;21.90;48.90;;;;;;4998973;28;19964;-85
2023/06/06 02:59:33;;;;;;;;;;;22.00;48.80;;;;;;4999268;28;19941;-85
2023/06/06 03:01:59;;;;;;;;;;;21.90;48.90;;;;;;5001759;28;19910;-85
2023/06/06 03:04:25;;;;;;;;;;;21.90;48.90;;;;;;5015080;28;19920;-86
2023/06/06 03:06:50;;;;;;;;;;;21.90;49.00;;;;;;5013707;28;19946;-85
2023/06/06 03:09:19;;;;;;;;;;;21.80;49.00;;;;;;4996683;28;19937;-85
2023/06/06 03:11:44;;;;;;;;;;;21.80;49.10;;;;;;5013611;28;19910;-85
2023/06/06 03:14:11;;;;;;;;;;;21.80;49.00;;;;;;4995722;28;19909;-85
2023/06/06 03:16:36;;;;;;;;;;;21.80;49.20;;;;;;4995391;28;19992;-85
2023/06/06 03:19:05;;;;;;;;;;;21.80;49.30;;;;;;4996763;28;20000;-85
2023/06/06 03:21:31;;;;;;;;;;;21.80;49.30;;;;;;5014983;28;20276;-85
2023/06/06 03:23:56;;;;;;;;;;;21.80;49.20;;;;;;4997535;28;19971;-85
2023/06/06 03:26:26;;;;;;;;;;;21.70;49.30;;;;;;5014554;28;19925;-85
2023/06/06 03:28:56;;;;;;;;;;;21.70;49.20;;;;;;4998058;28;19909;-85
2023/06/06 03:31:23;;;;;;;;;;;21.70;49.60;;;;;;4996831;28;20226;-85
2023/06/06 03:33:55;;;;;;;;;;;21.70;49.60;;;;;;4996893;28;19960;-85
2023/06/06 03:36:20;;;;;;;;;;;21.60;49.40;;;;;;4995193;28;19918;-85
2023/06/06 03:38:46;;;;;;;;;;;21.60;49.30;;;;;;5011997;28;20264;-85
2023/06/06 03:41:11;;;;;;;;;;;21.70;49.40;;;;;;4995749;28;19909;-85
2023/06/06 03:43:37;;;;;;;;;;;21.60;49.40;;;;;;5013584;28;19929;-85
2023/06/06 03:46:06;;;;;;;;;;;21.60;49.40;;;;;;5014475;28;19924;-85
2023/06/06 03:48:31;;;;;;;;;;;21.60;49.40;;;;;;5013016;28;19909;-85
2023/06/06 03:50:57;;;;;;;;;;;21.60;49.40;;;;;;4997588;28;20197;-85
2023/06/06 03:53:22;;;;;;;;;;;21.60;49.50;;;;;;4995832;28;20165;-85
2023/06/06 03:55:48;;;;;;;;;;;21.60;49.50;;;;;;5013390;28;20310;-85
2023/06/06 03:58:14;;;;;;;;;;;21.60;49.40;;;;;;4996515;28;20062;-85
2023/06/06 04:00:43;;;;;;;;;;;21.60;49.50;;;;;;4995171;28;20003;-85
2023/06/06 04:03:09;;;;;;;;;;;21.60;49.50;;;;;;4995240;28;19909;-85
2023/06/06 04:05:39;;;;;;;;;;;21.60;49.40;;;;;;4996240;28;19914;-85
2023/06/06 04:08:04;;;;;;;;;;;21.60;49.40;;;;;;5012228;28;20303;-85
2023/06/06 04:10:31;;;;;;;;;;;21.60;49.40;;;;;;4994356;28;19909;-85
2023/06/06 04:12:56;;;;;;;;;;;21.60;49.50;;;;;;4994639;28;19986;-85
2023/06/06 04:15:22;;;;;;;;;;;21.60;49.50;;;;;;4994848;28;19910;-85
2023/06/06 04:17:47;;;;;;;;;;;21.60;49.50;;;;;;4994334;28;19914;-85
2023/06/06 04:20:16;;;;;;;;;;;21.60;49.50;;;;;;5010031;28;19910;-85
2023/06/06 04:22:43;;;;;;;;;;;21.60;49.40;;;;;;4993423;28;19917;-85
2023/06/06 04:25:13;;;;;;;;;;;21.60;49.60;;;;;;4994945;28;19918;-85
2023/06/06 04:27:40;;;;;;;;;;;21.60;49.50;;;;;;4995565;28;19996;-85
2023/06/06 04:30:06;;;;;;;;;;;21.60;49.50;;;;;;5011827;28;20016;-85
2023/06/06 04:32:32;;;;;;;;;;;21.60;49.50;;;;;;4994950;28;20211;-85
2023/06/06 04:35:01;;;;;;;;;;;21.60;49.50;;;;;;5010747;28;19914;-85
2023/06/06 04:37:31;;;;;;;;;;;21.60;49.50;;;;;;4993023;28;19971;-85
2023/06/06 04:40:00;;;;;;;;;;;21.70;49.50;;;;;;4992703;28;19917;-85
2023/06/06 04:42:34;;;;;;;;;;;21.70;49.40;;;;;;4993540;28;19920;-85
2023/06/06 04:45:02;;;;;;;;;;;21.70;49.60;;;;;;5008568;28;19961;-85
2023/06/06 04:47:28;;;;;;;;;;;21.70;49.70;;;;;;5009394;28;20008;-85
2023/06/06 04:49:54;;;;;;;;;;;21.70;49.60;;;;;;4991248;28;20000;-85
2023/06/06 04:52:23;;;;;;;;;;;21.80;49.60;;;;;;4992734;28;19910;-86
2023/06/06 04:54:51;;;;;;;;;;;21.80;49.70;;;;;;4996719;28;20276;-86
2023/06/06 04:57:16;;;;;;;;;;;21.80;49.90;;;;;;4995652;28;19992;-86
2023/06/06 04:59:47;;;;;;;;;;;21.80;49.90;;;;;;4995190;28;20007;-85
2023/06/06 05:02:12;;;;;;;;;;;21.90;50.00;;;;;;4996613;28;20279;-86
2023/06/06 05:04:41;;;;;;;;;;;22.00;50.00;;;;;;4994701;28;19913;-86
2023/06/06 05:07:07;;;;;;;;;;;22.00;50.20;;;;;;4993425;28;19909;-85
2023/06/06 05:09:33;;;;;;;;;;;22.00;50.10;;;;;;4994443;28;19917;-86
2023/06/06 05:12:02;;;;;;;;;;;22.10;50.30;;;;;;4993981;28;20227;-85
2023/06/06 05:14:27;;;;;;;;;;;22.10;49.90;;;;;;5013206;28;19970;-85
2023/06/06 05:16:53;;;;;;;;;;;22.10;49.80;;;;;;4995171;28;19918;-85
2023/06/06 05:19:22;;;;;;;;;;;22.20;50.00;;;;;;4994050;28;20035;-86
2023/06/06 05:21:51;;;;;;;;;;;22.20;50.00;;;;;;4993564;28;19944;-86
2023/06/06 05:24:20;;;;;;;;;;;22.30;50.20;;;;;;4995235;28;20232;-86
2023/06/06 05:26:46;;;;;;;;;;;22.40;50.40;;;;;;5013015;28;19991;-85
2023/06/06 05:29:14;;;;;;;;;;;22.40;49.80;;;;;;5011720;28;20212;-86
2023/06/06 05:31:40;;;;;;;;;;;22.50;49.90;;;;;;5010828;28;20318;-85
2023/06/06 05:34:06;;;;;;;;;;;22.50;50.00;;;;;;4993788;28;19909;-86
2023/06/06 05:36:31;;;;;;;;;;;22.60;50.00;;;;;;4993874;28;20260;-86
2023/06/06 05:38:57;;;;;;;;;;;22.70;49.90;;;;;;5009823;28;19910;-86
2023/06/06 05:41:23;;;;;;;;;;;22.80;49.60;;;;;;4990503;28;19964;-86
2023/06/06 05:43:50;;;;;;;;;;;22.80;49.60;;;;;;5007287;28;20266;-85
2023/06/06 05:46:16;;;;;;;;;;;22.80;49.50;;;;;;5008295;28;20311;-85
2023/06/06 05:48:41;;;;;;;;;;;22.90;49.70;;;;;;4990167;28;20194;-85
2023/06/06 05:51:08;;;;;;;;;;;23.00;49.20;;;;;;5004800;28;19918;-85
2023/06/06 05:53:34;;;;;;;;;;;23.00;50.10;;;;;;5007312;28;20219;-85
2023/06/06 05:55:59;;;;;;;;;;;23.10;49.30;;;;;;4990924;28;19909;-85
2023/06/06 05:58:25;;;;;;;;;;;23.10;49.20;;;;;;4988179;28;19967;-85
2023/06/06 06:00:51;;;;;;;;;;;23.20;49.10;;;;;;4987688;28;20027;-85
2023/06/06 06:03:17;;;;;;;;;;;23.30;49.00;;;;;;4990873;28;20015;-85
2023/06/06 06:05:45;;;;;;;;;;;23.40;49.00;;;;;;4990706;28;20304;-85
2023/06/06 06:08:14;;;;;;;;;;;23.50;48.90;;;;;;5003720;28;19945;-85
2023/06/06 06:10:42;;;;;;;;;;;23.50;49.30;;;;;;5005471;28;19952;-85
2023/06/06 06:13:11;;;;;;;;;;;23.70;48.70;;;;;;4987918;28;19976;-85
2023/06/06 06:15:39;;;;;;;;;;;23.80;48.80;;;;;;5006258;28;19909;-85
2023/06/06 06:18:05;;;;;;;;;;;23.90;48.90;;;;;;5007082;28;20005;-85
2023/06/06 06:20:31;;;;;;;;;;;24.00;48.50;;;;;;4991427;28;20022;-85
2023/06/06 06:22:56;;;;;;;;;;;24.10;48.90;;;;;;4991200;28;19921;-86
2023/06/06 06:25:25;;;;;;;;;;;24.20;48.40;;;;;;4989317;28;20049;-85
2023/06/06 06:27:53;;;;;;;;;;;24.40;48.00;;;;;;5007693;28;20057;-85
2023/06/06 06:30:20;;;;;;;;;;;24.50;47.90;;;;;;4988354;28;19998;-85
2023/06/06 06:32:45;;;;;;;;;;;24.60;47.80;;;;;;4989949;28;19909;-86
2023/06/06 06:35:11;;;;;;;;;;;24.60;48.60;;;;;;4988050;28;19928;-85
2023/06/06 06:37:37;;;;;;;;;;;24.70;48.70;;;;;;4989261;28;20161;-85
2023/06/06 06:40:12;;;;;;;;;;;24.80;48.20;;;;;;4989583;28;20031;-85
2023/06/06 06:42:41;;;;;;;;;;;25.00;47.90;;;;;;4988336;28;19917;-86
2023/06/06 06:45:08;;;;;;;;;;;25.20;48.30;;;;;;5006528;28;20023;-85
2023/06/06 06:47:35;;;;;;;;;;;25.30;47.70;;;;;;5007511;28;20012;-85
2023/06/06 06:50:01;;;;;;;;;;;25.40;47.80;;;;;;5008470;28;20338;-85
2023/06/06 06:52:27;;;;;;;;;;;25.50;47.30;;;;;;4989575;28;19910;-85
2023/06/06 06:54:54;;;;;;;;;;;25.70;47.00;;;;;;4990596;28;20291;-85
2023/06/06 06:57:23;;;;;;;;;;;25.80;46.90;;;;;;5008624;28;19948;-86
2023/06/06 07:00:23;;;;;;;;;;;26.00;46.80;;;;;;4990494;28;19981;-85
2023/06/06 07:02:42;;;;;;;;;;;26.20;46.60;;;;;;5005035;28;20005;-86
2023/06/06 07:05:15;;;;;;;;;;;26.40;46.40;;;;;;4989232;28;19913;-85
2023/06/06 07:07:43;;;;;;;;;;;26.70;46.70;;;;;;4989240;28;20073;-85
2023/06/06 07:10:15;;;;;;;;;;;27.10;45.80;;;;;;4987443;28;19917;-86
2023/06/06 07:12:42;;;;;;;;;;;27.50;45.30;;;;;;4988672;28;19910;-86
2023/06/06 07:15:08;;;;;;;;;;;28.00;44.90;;;;;;4988499;28;20230;-86
2023/06/06 07:17:34;;;;;;;;;;;28.20;44.40;;;;;;4989612;28;19931;-86
2023/06/06 07:20:00;;;;;;;;;;;28.50;44.10;;;;;;5008751;28;19913;-85
2023/06/06 07:22:25;;;;;;;;;;;28.70;44.00;;;;;;4990745;28;20176;-86
2023/06/06 07:24:51;;;;;;;;;;;29.10;43.80;;;;;;4989490;28;20170;-85
2023/06/06 07:27:18;;;;;;;;;;;29.20;43.50;;;;;;4989489;28;20284;-85
2023/06/06 07:29:44;;;;;;;;;;;29.60;43.70;;;;;;4990681;28;19956;-85
2023/06/06 07:32:12;;;;;;;;;;;29.60;43.10;;;;;;4989846;28;19945;-85
2023/06/06 07:34:42;;;;;;;;;;;29.80;43.00;;;;;;4987182;28;19932;-86
2023/06/06 07:37:07;;;;;;;;;;;29.80;42.90;;;;;;5004797;28;19929;-85
2023/06/06 07:39:33;;;;;;;;;;;30.00;42.90;;;;;;4989592;28;19914;-85
2023/06/06 07:41:59;;;;;;;;;;;30.10;42.70;;;;;;4990204;28;20161;-86
2023/06/06 07:44:24;;;;;;;;;;;30.20;42.60;;;;;;4990474;28;20063;-86
2023/06/06 07:46:50;;;;;;;;;;;30.30;42.60;;;;;;5006606;28;19921;-86
2023/06/06 07:49:15;;;;;;;;;;;30.50;42.30;;;;;;4990866;28;19940;-86
2023/06/06 07:51:44;;;;;;;;;;;30.60;42.20;;;;;;5006919;28;19949;-86
2023/06/06 07:54:14;;;;;;;;;;;30.70;42.10;;;;;;5005070;28;20187;-86
2023/06/06 07:56:40;;;;;;;;;;;30.90;42.10;;;;;;4989196;28;19917;-86
2023/06/06 07:59:06;;;;;;;;;;;31.00;42.30;;;;;;4988870;28;19909;-86
2023/06/06 08:01:35;;;;;;;;;;;31.10;42.10;;;;;;4988125;28;19975;-86
2023/06/06 08:04:07;;;;;;;;;;;31.10;41.80;;;;;;4988945;28;19910;-86
2023/06/06 08:06:36;;;;;;;;;;;31.20;41.80;;;;;;4985325;28;19924;-86
2023/06/06 08:09:08;;;;;;;;;;;31.40;41.70;;;;;;4988243;28;19972;-86
2023/06/06 08:11:35;;;;;;;;;;;31.60;41.60;;;;;;4987259;28;19909;-86
2023/06/06 08:14:03;;;;;;;;;;;31.50;41.70;;;;;;4987690;28;19920;-86
2023/06/06 08:16:31;;;;;;;;;;;31.70;41.70;;;;;;4987022;28;20397;-86
2023/06/06 08:19:00;;;;;;;;;;;31.80;41.50;;;;;;4985383;28;20295;-86
2023/06/06 08:21:26;;;;;;;;;;;31.90;41.60;;;;;;4987144;28;20042;-86
2023/06/06 08:23:53;;;;;;;;;;;31.90;41.50;;;;;;4986891;28;19937;-86
2023/06/06 08:26:23;;;;;;;;;;;31.80;41.50;;;;;;4988224;28;19917;-86
2023/06/06 08:28:52;;;;;;;;;;;31.70;41.70;;;;;;5009272;28;19910;-86
2023/06/06 08:31:18;;;;;;;;;;;31.90;41.60;;;;;;4990989;28;19909;-86
2023/06/06 08:33:48;;;;;;;;;;;32.00;41.90;;;;;;4991170;28;20004;-86
2023/06/06 08:36:13;;;;;;;;;;;31.90;41.70;;;;;;4992437;28;20464;-86
2023/06/06 08:38:39;;;;;;;;;;;31.70;41.90;;;;;;4991862;28;19953;-86
2023/06/06 08:41:05;;;;;;;;;;;31.60;42.20;;;;;;4992015;28;20187;-86
2023/06/06 08:43:36;;;;;;;;;;;31.50;42.40;;;;;;4992277;28;19909;-86
2023/06/06 08:46:02;;;;;;;;;;;31.30;42.40;;;;;;4993794;28;20303;-86
2023/06/06 08:48:28;;;;;;;;;;;31.20;42.60;;;;;;4991772;28;20019;-86
2023/06/06 08:50:55;;;;;;;;;;;30.90;42.70;;;;;;4990391;28;19984;-86
2023/06/06 08:53:21;;;;;;;;;;;30.90;43.00;;;;;;4990479;28;19952;-86
2023/06/06 08:55:47;;;;;;;;;;;30.80;43.50;;;;;;4989897;28;19952;-86
2023/06/06 08:58:13;;;;;;;;;;;30.70;43.60;;;;;;5005048;28;19945;-86
2023/06/06 09:00:39;;;;;;;;;;;30.80;43.30;;;;;;4989786;28;19910;-86
2023/06/06 09:03:06;;;;;;;;;;;30.70;43.30;;;;;;4988389;28;19933;-86
2023/06/06 09:05:32;;;;;;;;;;;30.60;43.50;;;;;;5007354;28;20191;-86
2023/06/06 09:07:57;;;;;;;;;;;30.60;43.60;;;;;;4991041;28;20081;-86
2023/06/06 09:10:23;;;;;;;;;;;30.70;43.60;;;;;;4989258;28;19909;-86
2023/06/06 09:12:52;;;;;;;;;;;30.50;43.80;;;;;;5006854;28;19909;-86
2023/06/06 09:15:17;;;;;;;;;;;30.40;43.70;;;;;;4992480;28;19909;-86
2023/06/06 09:17:44;;;;;;;;;;;30.40;43.80;;;;;;4994250;28;19910;-86
2023/06/06 09:20:15;;;;;;;;;;;30.50;43.80;;;;;;4990854;28;20012;-86
2023/06/06 09:22:50;;;;;;;;;;;30.40;43.90;;;;;;4999718;28;19934;-86
2023/06/06 09:25:28;;;;;;;;;;;30.40;44.10;;;;;;4990943;28;20227;-87
2023/06/06 09:28:13;;;;;;;;;;;30.40;44.10;;;;;;4991212;28;19916;-86
2023/06/06 09:30:39;;;;;;;;;;;30.20;44.10;;;;;;5006802;28;19967;-86
2023/06/06 09:33:05;;;;;;;;;;;30.20;44.20;;;;;;4989712;28;19914;-85
2023/06/06 09:35:34;;;;;;;;;;;30.20;44.20;;;;;;4989532;28;20168;-86
2023/06/06 09:38:13;;;;;;;;;;;30.10;44.50;;;;;;4987059;28;19956;-86
2023/06/06 09:40:43;;;;;;;;;;;30.10;44.50;;;;;;4989381;28;19909;-86
2023/06/06 09:43:10;;;;;;;;;;;29.90;44.70;;;;;;5006219;28;19975;-86
2023/06/06 09:45:46;;;;;;;;;;;29.80;45.00;;;;;;4988419;28;20021;-85
2023/06/06 09:48:41;;;;;;;;;;;29.80;44.90;;;;;;4991482;28;20130;-86
2023/06/06 09:51:09;;;;;;;;;;;29.80;45.10;;;;;;4987248;28;19910;-86
2023/06/06 09:53:38;;;;;;;;;;;29.70;45.10;;;;;;4990561;28;19910;-86
2023/06/06 09:56:04;;;;;;;;;;;29.70;45.10;;;;;;4988395;28;20268;-87
2023/06/06 09:58:34;;;;;;;;;;;29.80;45.10;;;;;;4987112;28;19975;-86
2023/06/06 10:01:03;;;;;;;;;;;29.70;45.10;;;;;;4988382;28;19975;-86
2023/06/06 10:03:36;;;;;;;;;;;29.80;45.20;;;;;;4987176;28;19910;-86
2023/06/06 10:06:03;;;;;;;;;;;29.80;45.10;;;;;;5004789;28;19914;-86
2023/06/06 10:08:30;;;;;;;;;;;29.80;45.10;;;;;;4986945;28;19910;-86
2023/06/06 10:10:56;;;;;;;;;;;29.60;45.20;;;;;;4986084;28;19910;-85
2023/06/06 10:13:22;;;;;;;;;;;29.60;45.30;;;;;;4988407;28;19909;-86
2023/06/06 10:15:49;;;;;;;;;;;29.50;45.50;;;;;;4988591;28;19909;-86
2023/06/06 10:18:26;;;;;;;;;;;29.60;45.50;;;;;;4986029;28;19910;-85
2023/06/06 10:20:54;;;;;;;;;;;29.60;45.60;;;;;;5004042;28;20106;-85
2023/06/06 10:23:23;;;;;;;;;;;29.40;45.90;;;;;;4988440;28;19910;-86
2023/06/06 10:26:05;;;;;;;;;;;29.30;45.70;;;;;;5081445;28;19912;-4
2023/06/06 10:28:35;;;;;;;;;;;29.30;45.90;;;;;;5082556;28;20001;-4
2023/06/06 10:31:23;;;;;;;;;;;29.20;45.90;;;;;;5081419;28;20305;-4
2023/06/06 10:33:54;;;;;;;;;;;29.20;46.00;;;;;;5080405;28;20394;-4
2023/06/06 10:36:20;;;;;;;;;;;29.20;46.10;;;;;;5061463;28;19936;-4
2023/06/06 10:39:04;;;;;;;;;;;29.20;46.10;;;;;;5061642;28;19908;-5
2023/06/06 10:41:41;;;;;;;;;;;29.20;46.10;;;;;;5080840;28;20308;-4
2023/06/06 10:44:06;;;;;;;;;;;29.00;46.10;;;;;;5081048;28;19913;-4
2023/06/06 10:46:34;;;;;;;;;;;29.10;46.20;;;;;;5061262;28;19908;-4
2023/06/06 10:49:00;;;;;;;;;;;29.00;46.30;;;;;;5080006;28;19951;-4
2023/06/06 10:51:34;;;;;;;;;;;28.90;46.40;;;;;;5079265;28;20090;-5
2023/06/06 10:54:12;;;;;;;;;;;28.90;47.00;;;;;;5060485;28;19977;-4
2023/06/06 10:56:42;;;;;;;;;;;28.80;46.50;;;;;;5061347;28;19919;-4
2023/06/06 10:59:13;;;;;;;;;;;28.70;46.50;;;;;;5080319;28;19909;-4
2023/06/06 11:01:45;;;;;;;;;;;28.60;46.60;;;;;;5080648;28;19919;-4
2023/06/06 11:04:20;;;;;;;;;;;28.60;46.70;;;;;;5080067;28;20396;-4
2023/06/06 11:06:49;;;;;;;;;;;28.50;46.90;;;;;;5062985;28;19912;-4
2023/06/06 11:09:16;;;;;;;;;;;28.40;46.80;;;;;;5079135;28;20093;-4
2023/06/06 11:11:41;;;;;;;;;;;28.40;46.90;;;;;;5077326;28;19919;-4
2023/06/06 11:14:08;;;;;;;;;;;28.40;46.90;;;;;;5080317;28;19909;-4
2023/06/06 11:16:40;;;;;;;;;;;28.30;46.90;;;;;;5055717;28;20049;-4
2023/06/06 11:19:09;;;;;;;;;;;28.30;47.00;;;;;;5078185;28;20057;-4
2023/06/06 11:21:37;;;;;;;;;;;28.30;47.20;;;;;;5078956;28;19935;-5
2023/06/06 11:24:04;;;;;;;;;;;28.30;47.10;;;;;;5058591;28;19916;-5
2023/06/06 11:26:30;;;;;;;;;;;28.30;47.10;;;;;;5079792;28;19912;-4
2023/06/06 11:28:56;;;;;;;;;;;28.20;47.10;;;;;;5080976;28;19924;-4
2023/06/06 11:31:26;;;;;;;;;;;28.20;47.20;;;;;;5080670;28;19916;-4
2023/06/06 11:33:52;;;;;;;;;;;28.20;47.30;;;;;;5079427;28;19958;-4
2023/06/06 11:36:21;;;;;;;;;;;28.20;47.30;;;;;;5055880;28;19999;-4
2023/06/06 11:38:46;;;;;;;4.97;3.47;;;28.20;47.20;;;;;;5060577;28;19998;-4
2023/06/06 11:41:12;;;;;;;4.33;3.40;;;28.20;47.30;;;;;;5066508;28;20176;-4
2023/06/06 11:43:51;;;;;;;3.87;3.30;;;28.10;47.40;;;;;;5083047;28;20195;-4
2023/06/06 11:46:17;;;;;;;4.07;3.20;;;28.10;47.30;;;;;;5066010;28;20469;-4
2023/06/06 11:48:43;;;;;;;7.67;4.20;;;28.20;47.40;;;;;;5066011;28;20235;-4
2023/06/06 11:51:11;;;;;;;4.17;3.20;;;28.10;47.30;;;;;;5047215;28;20333;-4
2023/06/06 11:53:37;;;;;;;4.97;3.27;;;28.10;47.40;;;;;;5065031;28;20336;-4
2023/06/06 11:56:04;;;;;;;3.40;3.10;;;28.20;47.40;;;;;;5045668;28;20278;-4
2023/06/06 11:58:34;;;;;;;3.77;2.80;;;28.20;47.30;;;;;;5044683;28;20226;-4
2023/06/06 12:01:10;;;;;;;6.00;3.70;;;28.10;47.30;;;;;;5064495;28;20507;-4
2023/06/06 12:03:40;;;;;;;3.73;3.33;;;28.20;47.20;;;;;;5046820;28;20171;-4
2023/06/06 12:06:09;;;;;;;3.40;2.90;;;28.00;47.60;;;;;;5065193;28;20479;-5
2023/06/06 12:08:37;;;;;;;8.30;3.90;;;28.00;47.40;;;;;;5062674;28;20326;-4
2023/06/06 12:11:22;;;;;;;5.30;3.40;;;28.10;47.30;;;;;;5062672;28;20745;-4
2023/06/06 12:13:51;;;;;;;7.50;3.47;;;28.10;47.20;;;;;;5064774;28;20164;-5
2023/06/06 12:16:37;;;;;;;7.77;3.80;;;28.10;47.30;;;;;;5049377;28;20182;-4
2023/06/06 12:19:20;;;;;;;5.03;3.17;;;28.10;47.00;;;;;;5063450;28;20225;-4
2023/06/06 12:21:53;;;;;;;3.23;2.83;;;28.20;47.20;;;;;;5064109;28;20171;-4
2023/06/06 12:24:26;;;;;;;3.80;3.20;;;28.10;47.10;;;;;;5045569;28;20304;-4
2023/06/06 12:26:57;;;;;;;4.50;3.23;;;28.20;47.10;;;;;;5063935;28;20194;-4
2023/06/06 12:29:26;;;;;;;3.83;3.30;;;28.20;47.10;;;;;;5047522;28;20179;-5
2023/06/06 12:32:39;;;;;;;6.77;3.20;;;28.20;47.00;;;;;;5067170;28;20190;-4
2023/06/06 12:35:07;;;;;;;5.03;3.30;;;28.10;47.10;;;;;;5063640;28;20292;-4
2023/06/06 12:37:46;;;;;;;3.80;3.10;;;28.00;46.90;;;;;;5049062;28;20614;-4
2023/06/06 12:40:19;;;;;;;6.90;2.90;;;28.00;47.00;;;;;;5064664;28;20229;-4
2023/06/06 12:42:55;;;;;;;5.60;3.03;;;28.00;47.10;;;;;;5062858;28;20175;-5
2023/06/06 12:45:22;;;;;;;4.47;3.40;;;28.00;47.00;;;;;;5063630;28;20191;-4
2023/06/06 12:47:53;;;;;;;4.33;3.20;;;28.00;47.00;;;;;;5045436;28;20782;-4
2023/06/06 12:50:20;;;;;;;5.73;3.00;;;28.10;46.80;;;;;;5065320;28;20631;-4
2023/06/06 12:52:46;;;;;;;5.47;3.00;;;28.00;47.00;;;;;;5064697;28;20207;-4
2023/06/06 12:55:18;;;;;;;4.30;2.90;;;28.00;46.90;;;;;;5063348;28;20171;-4
2023/06/06 12:57:45;;;;;;;4.23;2.93;;;28.00;46.80;;;;;;5045194;28;20210;-4
2023/06/06 13:00:14;;;;;;;3.67;3.13;;;28.00;46.60;;;;;;5044734;28;20434;-4
2023/06/06 13:02:41;;;;;;;3.70;2.80;;;28.00;46.50;;;;;;5041698;28;20264;-4
2023/06/06 13:05:08;;;;;;;3.37;2.90;;;28.00;46.60;;;;;;5061746;28;20273;-4
2023/06/06 13:07:34;;;;;;;4.90;3.20;;;28.10;46.40;;;;;;5062838;28;20160;-4
2023/06/06 13:10:02;;;;;;;3.20;2.90;;;28.00;46.30;;;;;;5062457;28;20168;-4
2023/06/06 13:12:28;;;;;;;5.37;3.10;;;28.00;46.20;;;;;;5046195;28;20168;-4
2023/06/06 13:14:56;;;;;;;5.67;3.10;;;28.00;46.00;;;;;;5060754;28;20318;-4
2023/06/06 13:17:23;;;;;;;3.90;2.80;;;28.00;45.40;;;;;;5061894;28;20364;-4
2023/06/06 13:19:49;;;;;;;3.90;2.80;;;28.10;45.80;;;;;;5043090;28;20475;-4
2023/06/06 13:22:18;;;;;;;6.77;3.10;;;28.00;45.70;;;;;;5043816;28;20182;-5
2023/06/06 13:24:45;;;;;;;3.73;2.77;;;28.10;45.40;;;;;;5079755;28;20269;-4
2023/06/06 13:27:10;;;;;;;2.90;2.60;;;28.00;45.80;;;;;;5065227;28;20418;-4
2023/06/06 13:29:39;;;;;;;4.43;2.90;;;28.00;44.40;;;;;;5065495;28;20176;-4
2023/06/06 13:32:06;;;;;;;3.37;2.80;;;27.80;43.30;;;;;;5063879;28;20167;-4
2023/06/06 13:34:34;;;;;;;4.30;3.20;;;27.60;43.10;;;;;;5062584;28;20182;-5
2023/06/06 13:37:03;;;;;;;3.33;2.60;;;27.60;44.20;;;;;;5042680;28;20180;-4
2023/06/06 13:39:29;;;;;;;3.10;2.77;;;27.60;44.20;;;;;;5063811;28;20418;-4
2023/06/06 13:41:56;;;;;;;3.13;2.83;;;27.60;44.00;;;;;;5062974;28;20179;-4
2023/06/06 13:44:22;;;;;;;3.00;2.63;;;27.60;45.00;;;;;;5062360;28;20227;-5
2023/06/06 13:46:48;;;;;;;4.10;2.93;;;27.70;45.10;;;;;;5063301;28;20574;-4
2023/06/06 13:49:17;;;;;;;5.87;3.23;;;27.70;45.20;;;;;;5063654;28;20270;-4
2023/06/06 13:51:44;;;;;;;4.37;3.03;;;27.60;45.30;;;;;;5065437;28;20328;-4
2023/06/06 13:54:13;;;;;;;4.63;3.10;;;27.70;45.40;;;;;;5065079;28;20220;-4
2023/06/06 13:56:40;;;;;;;4.97;3.10;;;27.70;44.90;;;;;;5065643;28;20413;-4
2023/06/06 13:59:06;;;;;;;5.17;3.33;;;27.60;45.20;;;;;;5047056;28;20183;-4
2023/06/06 14:01:32;;;;;;;4.73;3.40;;;27.60;45.40;;;;;;5064612;28;20175;-4
2023/06/06 14:04:00;;;;;;;3.17;2.87;;;27.70;45.40;;;;;;5053669;28;20186;-5
2023/06/06 14:06:26;;;;;;;5.23;3.13;;;27.60;45.50;;;;;;5090404;28;20595;-4
2023/06/06 14:08:56;;;;;;;6.40;3.20;;;27.70;45.00;;;;;;5074428;28;20172;-4